Flight Track Log - Related Links

Times and Time Zones

All times are in EDT time to prevent confusion due to time zone crossing. See the EGF3016 flight status page for this flight to view local times or setup timezone preferences in your user account.

Time Position Orientation Groundspeed Altitude Reporting Facility
EDT Latitude Longitude Course Direction KTS MPH feet Rate Location/Type
Tue 07:56:24 AM 42.5386 -92.4056 90° East 143 165 23,000  Level Chicago Center
Tue 07:57:25 AM 42.5089 -92.3578 130° Southeast 249 287 4,100 -8,195 Descending Chicago Center
Tue 07:58:27 AM 42.5317 -92.2697 71° East 247 284 6,200 2,256 Climbing Chicago Center
Tue 07:59:30 AM 42.5564 -92.1678 72° East 266 306 8,800 2,304 Climbing Chicago Center
Tue 08:00:32 AM 42.5814 -92.0617 72° East 286 329 11,000 2,049 Climbing Chicago Center
Tue 08:01:00 AM 42.5333 -91.6676 90° East  Level FlightAware Approximate
Tue 08:01:33 AM 42.5619 -91.9194 100° East 324 373 13,000  Level Chicago Center
Tue 08:02:35 AM 42.5461 -91.7947 100° East 339 390 14,700 1,645 Climbing Chicago Center
Tue 08:03:37 AM 42.5425 -91.6636 92° East 353 406 16,400 1,694 Climbing Chicago Center
Tue 08:04:39 AM 42.5408 -91.5319 91° East 358 412 18,200 1,854 Climbing Chicago Center
Tue 08:05:40 AM 42.5383 -91.4014 91° East 355 409 20,200 1,366 Climbing Chicago Center
Tue 08:06:42 AM 42.5358 -91.2406 91° East 363 418 21,000 387 Climbing Chicago Center
Tue 08:07:44 AM 42.5325 -91.0892 92° East 402 463 21,000  Level Chicago Center
Tue 08:08:46 AM 42.5286 -90.9372 92° East 409 471 21,000  Level Chicago Center
Tue 08:09:47 AM 42.5250 -90.7783 92° East 424 488 21,000  Level Chicago Center
Tue 08:10:49 AM 42.5239 -90.6189 90° East 429 494 21,000  Level Chicago Center
Tue 08:11:51 AM 42.5231 -90.4247 90° East 434 499 21,000  Level Chicago Center
Tue 08:12:53 AM 42.5197 -90.2622 92° East 436 502 21,000  Level Chicago Center
Tue 08:13:55 AM 42.5058 -90.1053 97° East 425 489 21,000  Level Chicago Center
Tue 08:14:56 AM 42.4928 -89.9464 96° East 428 493 21,000  Level Chicago Center
Tue 08:15:58 AM 42.4781 -89.7631 96° East 429 494 21,000  Level Chicago Center
Tue 08:17:00 AM 42.4667 -89.6011 95° East 432 497 21,000 -97 Level Chicago Center
Tue 08:18:02 AM 42.4536 -89.4381 96° East 435 501 20,800 -1,258 Descending Chicago Center
Tue 08:19:04 AM 42.4408 -89.2781 96° East 430 495 18,400 -2,468 Descending Chicago Center
Tue 08:20:06 AM 42.4261 -89.1058 97° East 400 460 15,700 -2,371 Descending Chicago Center
Tue 08:21:08 AM 42.4133 -88.9547 96° East 404 465 13,500 -2,032 Descending Chicago Center
Tue 08:22:10 AM 42.4011 -88.8075 96° East 398 458 11,500 -1,452 Descending Chicago Center
Tue 08:23:12 AM 42.3894 -88.6692 96° East 383 441 10,500 -919 Descending Chicago Center
Tue 08:24:14 AM 42.3789 -88.5636 98° East 311 358 9,600 -919 Descending Chicago Center
Tue 08:25:16 AM 42.3589 -88.4428 103° East 289 333 8,600 -919 Descending Chicago Center
Tue 08:26:18 AM 42.3192 -88.3731 128° Southeast 275 316 7,700 -1,161 Descending Chicago Center
Tue 08:27:20 AM 42.2578 -88.2808 132° Southeast 276 318 6,200 -1,113 Descending Chicago Center
Tue 08:28:22 AM 42.2122 -88.2094 131° Southeast 260 299 5,400 -581 Descending Chicago Center
Tue 08:29:24 AM 42.1706 -88.1461 132° Southeast 236 272 5,000 -629 Descending Chicago Center
Tue 08:30:26 AM 42.1275 -88.0869 134° Southeast 226 260 4,100 -1,009 Descending Chicago Center
Tue 08:31:17 AM 42.0833 -88.0500 148° Southeast 190 219 3,100 -1,027 Descending Chicago TRACON
Tue 08:32:17 AM 42.0500 -88.0000 132° Southeast 172 198 2,200 -850 Descending Chicago TRACON
Tue 08:33:17 AM 42.0167 -87.9667 143° Southeast 143 165 1,400 -737 Descending Chicago TRACON
Tue 08:34:11 AM 41.9833 -87.9333 143° Southeast 138 159 800 -667 Descending Chicago TRACON

Login

Don't have an account? Register now (free) for customized features, flight alerts, and more!